Latest Weather Observations for Lucinda

IDQ60801

Issued at 7:02 am EST Sunday 1 February 2015 (issued every 30 minutes, with the page automatically refreshed every 10 minutes)

About weather observations | Map of weather stations | Latest weather observations for QLD | Other Formats
Station Details ID: 032141 Name: LUCINDA POINT Lat: -18.52 Lon: 146.39 Height: 10.0 m
Data from the previous 72 hours. | See also: Recent months for locations in Queensland
Date/Time
EST
Temp
°C
App
Temp
°C
Dew
Point
Rel
Hum
%
Delta-T
°C
Wind Press
QNH
hPa
Press
MSL
hPa
Rain
since 9 am
mm
Dir
 
Spd
km/h
Gust
km/h
Spd
kts
Gust
kts
01/07:00am 27.4 28.1 21.2 69 4.1 WNW 19 22 10 12 1006.0 1005.9 0.0
01/06:30am 26.6 28.5 22.7 79 2.6 SW 17 20 9 11 1006.7 1006.6 0.0
01/06:00am 26.5 28.1 22.8 80 2.5 SW 19 22 10 12 1006.6 1006.5 0.0
01/05:30am 26.7 28.6 23.4 82 2.3 SW 19 20 10 11 1006.4 1006.3 0.0
01/05:00am 26.6 28.3 23.1 81 2.4 SW 19 20 10 11 1006.3 1006.2 0.0
01/04:30am 26.7 28.6 22.8 79 2.6 WSW 17 20 9 11 1005.9 1005.8 0.0
01/04:00am 27.4 29.0 21.4 70 4.0 WSW 15 20 8 11 1005.8 1005.7 0.0
01/03:30am 27.9 29.5 20.7 65 4.8 WNW 13 19 7 10 1005.5 1005.4 0.0
01/03:00am 28.1 28.9 20.6 63 5.0 NW 17 22 9 12 1005.3 1005.2 0.0
01/02:30am 28.2 28.9 20.5 63 5.1 NW 17 22 9 12 1005.5 1005.4 0.0
01/02:00am 28.3 28.5 20.6 63 5.1 NNW 20 26 11 14 1005.9 1005.8 0.0
01/01:30am 28.4 28.3 20.7 63 5.1 NNW 22 26 12 14 1006.1 1006.0 0.0
01/01:00am 28.4 28.5 20.4 62 5.3 NNW 20 24 11 13 1006.7 1006.6 0.0
01/12:30am 28.5 28.0 20.8 63 5.1 NNW 24 30 13 16 1007.0 1006.9 0.0
01/12:00am 28.7 29.1 20.7 62 5.3 NNW 19 28 10 15 1007.5 1007.4 0.0
 
Date/Time
EST
Temp
°C
App
Temp
°C
Dew
Point
Rel
Hum
%
Delta-T
°C
Wind Press
QNH
hPa
Press
MSL
hPa
Rain
since 9 am
mm
Dir
 
Spd
km/h
Gust
km/h
Spd
kts
Gust
kts
31/11:30pm 28.7 28.8 20.4 60 5.5 NNW 20 26 11 14 1007.4 1007.3 0.0
31/11:00pm 28.8 29.1 19.7 58 6.0 N 17 24 9 13 1007.8 1007.7 0.0
31/10:30pm 28.8 29.5 20.5 61 5.5 N 17 22 9 12 1007.8 1007.7 0.0
31/10:00pm 28.9 29.2 20.4 60 5.6 N 19 22 10 12 1007.9 1007.8 0.0
31/09:30pm 29.0 28.9 19.9 58 6.0 N 20 26 11 14 1007.6 1007.5 0.0
31/09:00pm 29.0 28.7 20.4 59 5.7 N 22 28 12 15 1007.5 1007.4 0.0
31/08:30pm 28.9 29.0 20.4 60 5.6 NNE 20 26 11 14 1007.2 1007.1 0.0
31/08:00pm 29.0 28.9 19.9 58 6.0 NNE 20 26 11 14 1006.9 1006.8 0.0
31/07:30pm 29.0 28.9 19.9 58 6.0 NNE 20 24 11 13 1006.4 1006.3 0.0
31/07:00pm 28.9 29.0 20.4 60 5.6 NE 20 24 11 13 1006.1 1006.0 0.0
31/06:30pm 29.0 29.6 21.0 62 5.3 ENE 19 24 10 13 1005.6 1005.5 0.0
31/06:00pm 28.9 29.5 21.4 64 5.0 ENE 20 24 11 13 1005.3 1005.2 0.0
31/05:30pm 28.9 30.1 21.4 64 5.0 E 17 22 9 12 1004.9 1004.8 0.0
31/05:00pm 29.2 29.7 20.9 61 5.5 ESE 19 22 10 12 1004.8 1004.7 0.0
31/04:30pm 29.9 31.3 21.0 59 5.9 ESE 15 20 8 11 1004.7 1004.6 0.0
31/04:00pm 29.9 30.5 20.2 56 6.4 ESE 17 24 9 13 1004.6 1004.5 0.0
31/03:30pm 29.5 30.2 20.4 58 6.0 E 17 22 9 12 1005.1 1005.0 0.0
31/03:00pm 29.6 29.9 20.5 58 6.0 ESE 19 26 10 14 1005.2 1005.1 0.0
31/02:30pm 29.7 30.2 20.8 58 5.9 ESE 19 26 10 14 1005.4 1005.3 0.0
31/02:00pm 30.1 31.0 20.9 57 6.1 ESE 17 22 9 12 1005.7 1005.6 0.0
31/01:30pm 30.1 31.4 20.1 55 6.6 ESE 13 20 7 11 1005.9 1005.8 0.0
31/01:00pm 30.2 32.7 21.0 58 6.2 SSE 9 15 5 8 1006.3 1006.2 0.0
31/12:30pm 29.4 31.6 20.5 58 5.9 S 9 17 5 9 1006.7 1006.6 0.0
31/12:00pm 30.1 32.5 20.9 57 6.1 ESE 9 17 5 9 1006.9 1006.8 0.0
31/11:30am 30.2 32.8 20.4 55 6.5 SE 7 13 4 7 1007.2 1007.1 0.0
31/11:00am 29.5 32.2 20.6 58 5.9 SSE 7 11 4 6 1007.4 1007.3 0.0
31/10:30am 28.5 30.5 20.0 60 5.6 S 9 11 5 6 1007.6 1007.5 0.0
31/10:00am 28.3 30.5 19.5 59 5.7 S 7 11 4 6 1007.8 1007.7 0.0
31/09:30am 28.8 31.2 20.0 59 5.8 S 7 9 4 5 1008.2 1008.1 0.0
31/09:00am 28.0 29.8 19.5 60 5.5 S 9 13 5 7 1008.2 1008.1 13.4
31/08:30am 27.2 28.4 19.8 64 4.8 SW 13 17 7 9 1008.1 1008.0 13.2
31/08:00am 26.6 27.6 20.2 68 4.2 SW 15 19 8 10 1007.8 1007.7 13.2
31/07:30am 26.1 25.8 19.5 67 4.3 WSW 20 24 11 13 1007.6 1007.5 13.2
31/07:00am 26.0 26.3 20.3 71 3.7 WSW 19 22 10 12 1007.4 1007.3 13.2
31/06:30am 25.5 25.8 20.7 75 3.1 WSW 20 24 11 13 1007.1 1007.0 13.2
31/06:00am 25.2 25.3 21.1 78 2.7 SW 22 26 12 14 1006.8 1006.7 13.2
31/05:30am 25.0 25.0 20.9 78 2.7 WSW 22 28 12 15 1006.2 1006.1 13.2
31/05:00am 25.0 25.2 21.3 80 2.4 WSW 22 26 12 14 1006.0 1005.9 13.2
31/04:30am 25.0 25.7 22.3 85 1.8 WSW 22 26 12 14 1005.9 1005.8 13.2
31/04:00am 25.2 27.2 22.9 87 1.6 SW 17 19 9 10 1005.7 1005.6 13.2
31/03:30am 25.1 27.3 22.6 86 1.7 WSW 15 17 8 9 1005.9 1005.8 13.2
31/03:00am 25.1 27.3 21.8 82 2.2 WSW 13 17 7 9 1006.2 1006.1 13.2
31/02:30am 24.8 26.2 22.5 87 1.5 WSW 19 24 10 13 1006.6 1006.5 13.2
31/02:00am 24.6 24.8 22.8 90 1.2 WSW 26 30 14 16 1006.5 1006.4 13.2
31/01:30am 24.5 25.8 22.6 89 1.3 WSW 20 24 11 13 1006.9 1006.8 13.2
31/01:00am 24.8 26.5 22.3 86 1.7 WSW 17 20 9 11 1007.0 1006.9 13.2
31/12:30am 24.6 26.4 21.9 85 1.8 WSW 15 19 8 10 1007.2 1007.1 13.2
31/12:00am 24.7 25.7 21.8 84 1.9 WSW 19 22 10 12 1007.7 1007.6 13.2
 
Date/Time
EST
Temp
°C
App
Temp
°C
Dew
Point
Rel
Hum
%
Delta-T
°C
Wind Press
QNH
hPa
Press
MSL
hPa
Rain
since 9 am
mm
Dir
 
Spd
km/h
Gust
km/h
Spd
kts
Gust
kts
30/11:30pm 24.4 24.8 22.5 89 1.3 SW 24 26 13 14 1008.1 1008.0 13.2
30/11:00pm 24.0 24.6 22.1 89 1.3 WSW 22 26 12 14 1008.0 1007.9 13.2
30/10:30pm 24.2 26.5 22.1 88 1.4 N 13 19 7 10 1007.5 1007.4 13.2
30/10:00pm 23.6 24.7 22.0 91 1.1 E 19 24 10 13 1006.9 1006.8 13.0
30/09:30pm 22.4 24.8 20.9 91 1.0 W 9 15 5 8 1007.9 1007.8 10.2
30/09:00pm 22.4 22.8 20.9 91 1.0 SW 20 26 11 14 1007.8 1007.7 8.6
30/08:30pm 22.7 20.7 20.8 89 1.2 SW 32 52 17 28 1007.9 1007.8 5.2
30/08:20pm 22.5 17.7 20.4 88 1.4 WSW 46 65 25 35 1007.3 1007.2 3.8
30/08:00pm 23.8 20.2 17.1 66 4.1 SW 32 59 17 32 1007.7 1007.6 0.0
30/07:56pm 25.9 24.9 16.5 56 5.8 S 17 54 9 29 1007.7 1007.6 0.0
30/07:30pm 28.8 30.3 21.3 64 5.0 SE 15 24 8 13 1006.3 1006.2 0.0
30/07:00pm 28.9 30.1 21.4 64 5.0 SE 17 26 9 14 1005.6 1005.5 0.0
30/06:30pm 28.8 29.6 21.3 64 5.0 E 19 24 10 13 1004.8 1004.7 0.0
30/06:00pm 29.1 29.6 21.1 62 5.3 E 20 26 11 14 1004.0 1003.9 0.0
30/05:30pm 29.2 30.0 21.4 63 5.2 ENE 19 28 10 15 1003.7 1003.6 0.0
30/05:00pm 29.2 29.2 20.9 61 5.5 E 22 30 12 16 1003.6 1003.5 0.0
30/04:30pm 29.9 30.6 21.6 61 5.6 ESE 20 26 11 14 1003.6 1003.5 0.0
30/04:00pm 30.0 30.2 20.5 56 6.3 ESE 20 28 11 15 1003.5 1003.4 0.0
30/03:30pm 29.5 29.7 20.6 58 5.9 E 20 26 11 14 1003.5 1003.4 0.0
30/03:00pm 29.8 29.4 20.1 56 6.4 ESE 22 30 12 16 1003.8 1003.7 0.0
30/02:30pm 30.0 30.1 20.3 56 6.4 ESE 20 30 11 16 1004.3 1004.2 0.0
30/02:00pm 29.7 29.9 20.5 57 6.1 E 20 26 11 14 1004.7 1004.6 0.0
30/01:30pm 30.0 29.8 20.5 56 6.3 ESE 22 28 12 15 1004.8 1004.7 0.0
30/01:00pm 29.9 30.5 21.3 60 5.8 ESE 20 30 11 16 1005.3 1005.2 0.0
30/12:30pm 29.6 29.4 21.3 61 5.6 ESE 24 32 13 17 1005.5 1005.4 0.0
30/12:00pm 30.2 30.8 21.3 59 6.0 ESE 20 32 11 17 1005.8 1005.7 0.0
30/11:30am 30.0 30.9 21.9 62 5.5 ESE 20 26 11 14 1006.1 1006.0 0.0
30/11:00am 29.8 30.2 20.9 59 5.9 E 20 24 11 13 1006.1 1006.0 0.0
30/10:30am 30.0 30.5 21.1 59 5.9 ESE 20 26 11 14 1006.4 1006.3 0.0
30/10:00am 30.3 30.8 21.1 58 6.2 ESE 20 28 11 15 1006.4 1006.3 0.0
30/09:30am 29.2 30.1 21.9 64 4.9 E 20 26 11 14 1006.5 1006.4 0.0
30/09:00am 28.5 27.2 21.3 65 4.8 E 30 41 16 22 1006.2 1006.1 1.6
30/08:30am 29.2 30.2 21.7 64 5.0 ESE 19 28 10 15 1006.2 1006.1 1.6
30/08:00am 29.5 31.0 22.0 64 5.1 SE 17 26 9 14 1006.2 1006.1 1.6
30/07:30am 29.1 29.9 21.3 62 5.2 ESE 19 24 10 13 1005.9 1005.8 1.6
30/07:00am 29.6 31.1 21.3 61 5.6 ESE 15 24 8 13 1005.5 1005.4 1.6
30/06:30am 29.2 30.0 21.4 63 5.2 ESE 19 26 10 14 1005.1 1005.0 1.6
30/06:00am 28.5 29.3 21.8 67 4.5 ESE 20 30 11 16 1004.5 1004.4 1.6
30/05:30am 28.4 29.1 22.2 69 4.2 ESE 22 30 12 16 1004.4 1004.3 1.6
30/05:00am 28.2 29.9 22.4 71 3.9 ESE 17 26 9 14 1004.1 1004.0 1.6
30/04:30am 27.8 29.5 22.3 72 3.7 SE 17 30 9 16 1004.0 1003.9 1.2
30/04:00am 28.7 29.8 22.4 68 4.3 E 20 26 11 14 1004.2 1004.1 0.0
30/03:30am 28.7 30.4 22.4 68 4.3 ESE 17 24 9 13 1004.2 1004.1 0.0
30/03:00am 28.7 30.8 22.4 68 4.3 ESE 15 24 8 13 1004.0 1003.9 0.0
30/02:30am 28.7 31.2 22.4 68 4.3 SE 13 20 7 11 1004.0 1003.9 0.0
30/02:00am 28.8 30.6 22.5 68 4.3 ESE 17 24 9 13 1004.1 1004.0 0.0
30/01:30am 28.8 30.2 22.5 68 4.3 ESE 19 22 10 12 1004.4 1004.3 0.0
30/01:00am 28.8 30.5 22.3 68 4.4 E 17 22 9 12 1004.7 1004.6 0.0
30/12:30am 28.9 30.5 22.9 70 4.1 E 19 24 10 13 1005.1 1005.0 0.0
30/12:00am 28.9 30.6 22.4 68 4.4 ESE 17 26 9 14 1005.4 1005.3 0.0
 
Date/Time
EST
Temp
°C
App
Temp
°C
Dew
Point
Rel
Hum
%
Delta-T
°C
Wind Press
QNH
hPa
Press
MSL
hPa
Rain
since 9 am
mm
Dir
 
Spd
km/h
Gust
km/h
Spd
kts
Gust
kts
29/11:30pm 29.0 30.7 23.0 70 4.1 ESE 19 24 10 13 1005.5 1005.4 0.0
29/11:00pm 29.1 30.5 22.6 68 4.4 ESE 19 22 10 12 1005.6 1005.5 0.0
29/10:30pm 29.1 30.4 22.3 66 4.6 ESE 19 22 10 12 1005.6 1005.5 0.0
29/10:00pm 29.1 30.7 22.8 69 4.3 ESE 19 24 10 13 1005.5 1005.4 0.0
29/09:30pm 29.1 30.5 22.6 68 4.4 ESE 19 24 10 13 1005.1 1005.0 0.0
29/09:00pm 29.1 31.0 22.8 69 4.3 ENE 17 24 9 13 1004.9 1004.8 0.0
29/08:30pm 29.2 30.8 23.2 70 4.1 E 20 26 11 14 1004.4 1004.3 0.0
29/08:00pm 29.2 31.1 22.7 68 4.4 ESE 17 24 9 13 1004.2 1004.1 0.0
29/07:30pm 29.2 30.5 22.7 68 4.4 ESE 20 28 11 15 1003.9 1003.8 0.0
29/07:00pm 29.4 30.5 22.4 66 4.8 E 20 26 11 14 1003.4 1003.3 0.0
29/06:30pm 29.5 30.5 22.2 65 4.9 E 20 26 11 14 1003.0 1002.9 0.0
29/06:00pm 30.2 31.3 22.4 63 5.3 ESE 20 26 11 14 1002.6 1002.5 0.0
29/05:30pm 30.6 31.7 21.9 59 5.9 ESE 19 26 10 14 1002.2 1002.1 0.0
29/05:00pm 30.8 32.2 21.9 59 6.0 ESE 17 26 9 14 1002.0 1001.9 0.0
29/04:30pm 30.4 31.5 22.0 60 5.7 ESE 19 22 10 12 1001.6 1001.5 0.0
29/04:00pm 30.2 31.3 22.4 63 5.3 ESE 20 28 11 15 1001.2 1001.1 0.0
29/03:30pm 30.4 31.1 22.3 62 5.5 ESE 22 26 12 14 1001.5 1001.4 0.0
29/03:00pm 30.1 31.5 22.5 63 5.2 E 19 24 10 13 1002.0 1001.9 0.0
29/02:30pm 30.5 32.1 22.1 61 5.7 E 17 22 9 12 1002.2 1002.1 0.0
29/02:00pm 30.6 31.4 22.5 62 5.5 ESE 22 26 12 14 1002.3 1002.2 0.0
29/01:30pm 30.6 31.8 22.2 61 5.7 ESE 19 26 10 14 1002.5 1002.4 0.0
29/01:00pm 30.7 31.8 22.3 61 5.7 ESE 20 26 11 14 1002.6 1002.5 0.0
29/12:30pm 31.3 33.1 22.6 60 5.9 ESE 17 26 9 14 1002.8 1002.7 0.0
29/12:00pm 31.6 34.2 22.6 59 6.2 ESE 13 20 7 11 1003.2 1003.1 0.0
29/11:30am 31.7 34.0 22.1 56 6.5 ESE 13 20 7 11 1003.1 1003.0 0.0
29/11:00am 30.7 34.2 22.8 62 5.4 S 9 11 5 6 1003.2 1003.1 0.0
29/10:30am 29.4 32.2 23.6 71 4.0 SSW 15 17 8 9 1003.2 1003.1 0.0
29/10:00am 28.9 31.3 23.6 73 3.7 SSW 17 20 9 11 1003.2 1003.1 0.0
29/09:30am 28.7 30.6 22.7 70 4.1 SSW 17 20 9 11 1003.3 1003.2 0.0
29/09:00am 28.7 31.0 22.0 67 4.5 SW 13 17 7 9 1003.0 1002.9 0.0
29/08:30am 28.3 29.7 21.1 65 4.8 SW 15 19 8 10 1003.1 1003.0 0.0
29/08:00am 27.9 28.2 20.7 65 4.8 SW 20 22 11 12 1002.8 1002.7 0.0
29/07:30am 27.4 28.1 21.2 69 4.1 SW 19 20 10 11 1002.5 1002.4 0.0

Other Formats:

Comma delimited format used in spreadsheet applications
http://www.bom.gov.au/fwo/IDQ60801/IDQ60801.94295.axf

JavaScript Object Notation format (JSON) in row-major order
http://www.bom.gov.au/fwo/IDQ60801/IDQ60801.94295.json